Time;durP1;ratioP1;P1;durP2;ratioP2;P2;SDS_P1;SDS_P2;PMS_P1;PMS_P2;Temp;Humidity;BMP_temperature;BMP_pressure;BME280_temperature;BME280_humidity;BME280_pressure;Samples;Min_cycle;Max_cycle;Signal;HPM_P1;HPM_P2
2021/01/03 00:01:14;;;;;;;41.60;20.33;;;0.10;93.00;;;;;;5043173;28;20294;-82
2021/01/03 00:03:42;;;;;;;49.70;25.53;;;0.10;92.40;;;;;;5050565;28;20321;-83
2021/01/03 00:06:12;;;;;;;42.47;20.27;;;0.20;92.20;;;;;;5065237;28;20228;-80
2021/01/03 00:08:39;;;;;;;42.13;20.33;;;0.30;91.90;;;;;;5065931;28;20197;-80
2021/01/03 00:11:05;;;;;;;40.37;20.17;;;0.30;91.90;;;;;;5070936;28;20243;-80
2021/01/03 00:13:31;;;;;;;38.40;19.50;;;0.30;91.70;;;;;;5069545;28;20228;-80
2021/01/03 00:15:57;;;;;;;43.30;19.63;;;0.30;91.70;;;;;;5063582;28;20202;-80
2021/01/03 00:18:24;;;;;;;42.53;21.47;;;0.30;92.20;;;;;;5062803;28;20229;-80
2021/01/03 00:20:51;;;;;;;46.07;21.43;;;0.20;92.00;;;;;;5064293;28;20204;-82
2021/01/03 00:23:18;;;;;;;46.53;21.00;;;0.20;92.50;;;;;;5067127;28;20216;-83
2021/01/03 00:25:45;;;;;;;42.40;20.37;;;0.20;92.40;;;;;;5058517;28;20676;-79
2021/01/03 00:28:11;;;;;;;43.43;19.67;;;0.30;92.50;;;;;;5063014;28;20209;-84
2021/01/03 00:30:38;;;;;;;41.90;20.03;;;0.30;92.50;;;;;;5064288;28;20201;-81
2021/01/03 00:33:04;;;;;;;44.60;20.57;;;0.30;92.00;;;;;;5069874;28;20219;-80
2021/01/03 00:35:34;;;;;;;44.53;21.33;;;0.20;92.50;;;;;;5055227;28;20208;-83
2021/01/03 00:38:03;;;;;;;42.77;21.33;;;0.20;92.60;;;;;;5044252;28;20234;-79
2021/01/03 00:40:30;;;;;;;42.60;20.30;;;0.10;92.50;;;;;;5043554;28;20207;-79
2021/01/03 00:42:57;;;;;;;45.73;20.80;;;0.20;92.50;;;;;;5044015;28;20470;-78
2021/01/03 00:45:23;;;;;;;37.83;18.37;;;0.20;92.40;;;;;;5049653;28;20204;-78
2021/01/03 00:47:49;;;;;;;37.43;18.70;;;0.20;92.20;;;;;;5048506;28;20222;-78
2021/01/03 00:50:16;;;;;;;41.20;20.43;;;0.30;92.00;;;;;;5049232;28;20290;-82
2021/01/03 00:52:42;;;;;;;41.87;20.47;;;0.20;92.40;;;;;;5044155;28;21094;-80
2021/01/03 00:55:11;;;;;;;38.87;19.30;;;0.30;92.30;;;;;;5047945;28;20209;-83
2021/01/03 00:57:38;;;;;;;39.33;18.67;;;0.30;92.20;;;;;;5054569;28;20274;-78
2021/01/03 01:00:08;;;;;;;38.67;19.67;;;0.30;92.10;;;;;;5066202;28;20749;-78
2021/01/03 01:02:35;;;;;;;39.07;19.13;;;0.30;92.20;;;;;;5066585;28;20701;-79
2021/01/03 01:05:01;;;;;;;39.83;18.57;;;0.40;92.10;;;;;;5072458;28;20198;-82
2021/01/03 01:07:27;;;;;;;43.37;20.57;;;0.40;91.80;;;;;;5055711;28;20229;-81
2021/01/03 01:09:54;;;;;;;36.50;18.87;;;0.50;91.90;;;;;;5044633;28;20246;-78
2021/01/03 01:12:21;;;;;;;45.90;21.03;;;0.50;91.70;;;;;;5047104;28;20232;-79
2021/01/03 01:14:47;;;;;;;47.60;21.10;;;0.30;91.90;;;;;;5050603;28;20203;-82
2021/01/03 01:17:14;;;;;;;36.37;18.87;;;0.30;92.30;;;;;;5045293;28;20251;-81
2021/01/03 01:19:40;;;;;;;41.07;19.97;;;0.40;92.40;;;;;;5050686;28;20288;-78
2021/01/03 01:22:06;;;;;;;41.77;20.17;;;0.50;92.50;;;;;;5062589;28;20236;-79
2021/01/03 01:24:33;;;;;;;38.60;19.10;;;0.50;92.30;;;;;;5068012;28;20206;-82
2021/01/03 01:26:59;;;;;;;41.10;19.47;;;0.60;92.50;;;;;;5057792;28;20231;-80
2021/01/03 01:29:26;;;;;;;40.87;19.10;;;0.60;92.00;;;;;;5065766;28;20281;-79
2021/01/03 01:31:52;;;;;;;41.03;19.97;;;0.50;92.00;;;;;;5066367;28;20838;-78
2021/01/03 01:34:19;;;;;;;42.00;20.43;;;0.40;92.30;;;;;;5064807;28;20203;-78
2021/01/03 01:36:45;;;;;;;39.57;19.70;;;0.40;92.90;;;;;;5069085;28;20679;-78
2021/01/03 01:39:11;;;;;;;44.83;20.90;;;0.40;92.80;;;;;;5057365;28;20217;-78
2021/01/03 01:41:37;;;;;;;40.13;19.43;;;0.40;93.00;;;;;;5062863;28;20260;-80
2021/01/03 01:44:04;;;;;;;40.37;19.60;;;0.40;93.20;;;;;;5053560;28;20561;-83
2021/01/03 01:46:35;;;;;;;41.20;20.07;;;0.40;93.40;;;;;;5066978;28;20239;-81
2021/01/03 01:49:10;;;;;;;41.80;20.67;;;0.40;93.60;;;;;;5058399;28;20769;-79
2021/01/03 01:51:41;;;;;;;44.70;20.50;;;0.30;94.10;;;;;;5066699;28;20271;-79
2021/01/03 01:54:13;;;;;;;43.47;20.33;;;0.40;94.10;;;;;;5067546;28;20654;-78
2021/01/03 01:56:44;;;;;;;43.13;20.13;;;0.40;94.10;;;;;;5066240;28;20217;-79
2021/01/03 01:59:18;;;;;;;41.30;19.87;;;0.40;94.10;;;;;;5068130;28;20630;-82
2021/01/03 02:01:51;;;;;;;43.77;19.27;;;0.30;94.10;;;;;;5069319;28;20238;-81
2021/01/03 02:04:24;;;;;;;39.13;18.43;;;0.30;94.20;;;;;;5065966;28;20193;-80
2021/01/03 02:06:59;;;;;;;40.73;19.60;;;0.30;94.10;;;;;;5065696;28;20219;-81
2021/01/03 02:09:35;;;;;;;39.33;18.67;;;0.30;94.10;;;;;;5066710;28;20213;-80
2021/01/03 02:12:11;;;;;;;39.13;18.53;;;0.10;94.40;;;;;;5066263;28;20225;-83
2021/01/03 02:14:37;;;;;;;40.00;17.77;;;0.20;94.80;;;;;;5070829;28;20581;-84
2021/01/03 02:17:08;;;;;;;40.40;19.80;;;0.00;94.60;;;;;;5082693;28;20308;-79
2021/01/03 02:19:35;;;;;;;36.07;18.00;;;0.00;95.20;;;;;;5061722;28;20240;-80
2021/01/03 02:22:08;;;;;;;39.60;18.77;;;0.20;95.40;;;;;;5068564;28;20226;-79
2021/01/03 02:24:48;;;;;;;34.67;17.77;;;0.20;95.40;;;;;;5067018;28;20247;-79
2021/01/03 02:27:21;;;;;;;35.80;16.87;;;0.20;94.70;;;;;;5068287;28;20213;-80
2021/01/03 02:29:51;;;;;;;36.43;17.03;;;0.20;94.60;;;;;;5060827;28;20539;-80
2021/01/03 02:32:19;;;;;;;37.30;16.97;;;0.30;94.50;;;;;;5057074;28;20230;-83
2021/01/03 02:34:48;;;;;;;34.77;16.93;;;0.30;94.50;;;;;;5061428;28;20203;-79
2021/01/03 02:37:19;;;;;;;37.77;18.40;;;0.10;94.80;;;;;;5066713;28;20225;-78
2021/01/03 02:39:51;;;;;;;35.27;16.53;;;0.10;95.10;;;;;;5068371;28;20221;-78
2021/01/03 02:42:20;;;;;;;36.57;18.00;;;0.20;94.80;;;;;;5063240;28;20240;-78
2021/01/03 02:44:47;;;;;;;34.87;17.90;;;0.20;94.70;;;;;;5053008;28;20204;-78
2021/01/03 02:47:14;;;;;;;38.30;17.37;;;0.30;94.70;;;;;;5056254;28;20243;-79
2021/01/03 02:49:40;;;;;;;34.67;17.37;;;0.40;94.10;;;;;;5057201;28;21012;-79
2021/01/03 02:52:11;;;;;;;33.40;16.53;;;0.40;94.10;;;;;;5054311;28;20229;-81
2021/01/03 02:54:37;;;;;;;33.83;16.60;;;0.40;94.60;;;;;;5064787;28;20201;-79
2021/01/03 02:57:04;;;;;;;33.37;16.73;;;0.40;94.40;;;;;;5065385;28;20229;-79
2021/01/03 02:59:32;;;;;;;34.57;16.93;;;0.30;94.40;;;;;;5071496;28;20256;-80
2021/01/03 03:01:59;;;;;;;33.30;17.30;;;0.30;95.20;;;;;;5066508;28;20294;-81
2021/01/03 03:04:25;;;;;;;37.73;18.63;;;0.40;95.10;;;;;;5066361;28;20205;-80
2021/01/03 03:06:51;;;;;;;33.33;16.90;;;0.50;94.10;;;;;;5065960;28;20230;-78
2021/01/03 03:09:17;;;;;;;37.47;17.40;;;0.40;94.00;;;;;;5059866;28;20209;-78
2021/01/03 03:11:46;;;;;;;35.33;16.77;;;0.50;94.10;;;;;;5050275;28;20225;-79
2021/01/03 03:14:12;;;;;;;37.77;16.80;;;0.40;94.10;;;;;;5064107;28;20198;-79
2021/01/03 03:16:41;;;;;;;39.50;17.87;;;0.30;94.10;;;;;;5061219;28;20862;-78
2021/01/03 03:19:07;;;;;;;36.13;17.33;;;0.30;94.10;;;;;;5067863;28;20221;-78
2021/01/03 03:21:33;;;;;;;34.83;16.80;;;0.30;94.10;;;;;;5059445;28;20224;-79
2021/01/03 03:23:59;;;;;;;32.57;16.13;;;0.30;94.10;;;;;;5061030;28;20291;-78
2021/01/03 03:26:26;;;;;;;38.80;17.23;;;0.40;94.10;;;;;;5062376;28;20617;-79
2021/01/03 03:28:52;;;;;;;39.60;17.90;;;0.50;94.10;;;;;;5066123;28;20220;-82
2021/01/03 03:31:18;;;;;;;37.37;17.37;;;0.50;94.10;;;;;;5066676;28;20685;-78
2021/01/03 03:33:45;;;;;;;35.33;17.30;;;0.60;94.10;;;;;;5067722;28;20555;-78
2021/01/03 03:36:13;;;;;;;39.87;18.03;;;0.60;94.10;;;;;;5066527;28;20230;-78
2021/01/03 03:38:39;;;;;;;35.57;17.13;;;0.60;94.20;;;;;;5064917;28;20222;-79
2021/01/03 03:41:06;;;;;;;36.30;17.57;;;0.60;94.10;;;;;;5064068;28;20204;-79
2021/01/03 03:43:32;;;;;;;37.33;16.83;;;0.60;94.10;;;;;;5063458;28;20207;-82
2021/01/03 03:45:59;;;;;;;35.37;17.20;;;0.60;94.10;;;;;;5065436;28;20564;-79
2021/01/03 03:48:25;;;;;;;35.27;17.57;;;0.60;93.80;;;;;;5066723;28;20362;-79
2021/01/03 03:50:52;;;;;;;35.03;17.30;;;0.60;93.70;;;;;;5064884;28;20205;-79
2021/01/03 03:53:18;;;;;;;36.67;18.17;;;0.50;94.10;;;;;;5067468;28;20214;-79
2021/01/03 03:55:45;;;;;;;37.00;17.13;;;0.60;94.10;;;;;;5063853;28;20633;-79
2021/01/03 03:58:11;;;;;;;40.40;17.30;;;0.60;94.10;;;;;;5059639;28;20259;-81
2021/01/03 04:00:37;;;;;;;38.30;17.70;;;0.60;94.40;;;;;;5062744;28;20223;-78
2021/01/03 04:03:04;;;;;;;35.60;17.10;;;0.50;94.10;;;;;;5065990;28;20222;-78
2021/01/03 04:05:30;;;;;;;37.87;18.07;;;0.60;94.10;;;;;;5060801;28;20225;-78
2021/01/03 04:07:57;;;;;;;33.97;16.87;;;0.60;94.10;;;;;;5066642;28;20230;-78
2021/01/03 04:10:24;;;;;;;38.17;17.37;;;0.50;93.70;;;;;;5065622;28;20203;-77
2021/01/03 04:12:50;;;;;;;36.70;17.23;;;0.50;94.00;;;;;;5064654;28;20703;-78
2021/01/03 04:15:18;;;;;;;37.17;17.10;;;0.50;94.10;;;;;;5050399;28;20605;-78
2021/01/03 04:17:45;;;;;;;38.00;17.63;;;0.50;93.50;;;;;;5041330;28;20249;-78
2021/01/03 04:20:16;;;;;;;36.37;17.73;;;0.70;93.10;;;;;;5050627;28;20664;-79
2021/01/03 04:22:43;;;;;;;37.50;17.47;;;0.70;93.00;;;;;;5051623;28;20760;-78
2021/01/03 04:25:13;;;;;;;39.13;17.57;;;0.70;92.80;;;;;;5061072;28;20202;-81
2021/01/03 04:27:39;;;;;;;33.03;17.00;;;0.70;92.60;;;;;;5072230;28;20248;-80
2021/01/03 04:30:07;;;;;;;32.70;16.33;;;0.70;92.60;;;;;;5074466;28;20208;-78
2021/01/03 04:32:34;;;;;;;39.17;17.87;;;0.70;92.70;;;;;;5070594;28;20227;-79
2021/01/03 04:35:00;;;;;;;39.73;16.83;;;0.60;92.80;;;;;;5064267;28;20200;-81
2021/01/03 04:37:26;;;;;;;34.30;17.07;;;0.60;93.20;;;;;;5069717;28;20244;-78
2021/01/03 04:39:52;;;;;;;35.77;17.13;;;0.70;93.10;;;;;;5069078;28;20228;-78
2021/01/03 04:42:23;;;;;;;35.33;16.67;;;0.70;93.10;;;;;;5067892;28;20225;-80
2021/01/03 04:44:53;;;;;;;35.97;17.23;;;0.80;92.50;;;;;;5067680;28;20245;-80
2021/01/03 04:47:25;;;;;;;32.97;17.03;;;0.70;92.60;;;;;;5059165;28;20702;-79
2021/01/03 04:50:02;;;;;;;35.63;17.53;;;0.80;92.40;;;;;;5066208;28;20237;-83
2021/01/03 04:53:02;;;;;;;38.67;17.47;;;0.80;92.30;;;;;;5063177;28;20238;-78
2021/01/03 04:55:30;;;;;;;32.90;16.27;;;0.80;92.10;;;;;;5065800;28;20211;-78
2021/01/03 04:58:08;;;;;;;33.57;16.80;;;0.80;92.10;;;;;;5067252;28;20686;-78
2021/01/03 05:00:39;;;;;;;35.63;16.33;;;0.70;92.00;;;;;;5048835;28;20223;-79
2021/01/03 05:03:41;;;;;;;32.77;15.90;;;0.70;92.40;;;;;;5062526;28;20222;-78
2021/01/03 05:06:11;;;;;;;32.60;16.03;;;0.80;92.20;;;;;;5068159;28;20239;-81
2021/01/03 05:08:42;;;;;;;32.37;16.00;;;0.70;92.30;;;;;;5069520;28;20470;-78
2021/01/03 05:11:13;;;;;;;30.60;16.63;;;0.70;92.20;;;;;;5057917;28;20239;-78
2021/01/03 05:14:06;;;;;;;30.90;15.93;;;0.70;92.20;;;;;;5056204;28;20203;-82
2021/01/03 05:16:33;;;;;;;34.97;16.93;;;0.60;92.20;;;;;;5066452;28;20748;-78
2021/01/03 05:18:59;;;;;;;32.47;15.57;;;0.60;92.50;;;;;;5070036;28;20216;-78
2021/01/03 05:21:25;;;;;;;31.67;15.93;;;0.70;92.40;;;;;;5058483;28;20230;-80
2021/01/03 05:24:00;;;;;;;34.27;16.93;;;0.70;91.90;;;;;;5046905;28;20568;-78
2021/01/03 05:26:30;;;;;;;32.70;16.63;;;0.70;92.10;;;;;;5058749;28;20614;-79
2021/01/03 05:28:58;;;;;;;33.63;16.80;;;0.70;91.90;;;;;;5068186;28;20261;-80
2021/01/03 05:31:24;;;;;;;32.63;15.33;;;0.70;92.10;;;;;;5064832;28;20680;-78
2021/01/03 05:33:54;;;;;;;32.43;16.70;;;0.90;91.80;;;;;;5067012;28;20590;-80
2021/01/03 05:36:36;;;;;;;35.67;15.97;;;0.90;91.60;;;;;;5062330;28;20271;-78
2021/01/03 05:39:10;;;;;;;30.80;15.17;;;0.90;91.50;;;;;;5069645;28;20256;-78
2021/01/03 05:41:56;;;;;;;29.53;15.23;;;0.90;91.50;;;;;;5067872;28;20724;-78
2021/01/03 05:44:27;;;;;;;32.60;16.10;;;0.90;91.70;;;;;;5052468;28;20206;-80
2021/01/03 05:47:02;;;;;;;31.83;16.40;;;1.00;91.50;;;;;;5052852;28;20244;-79
2021/01/03 05:49:29;;;;;;;33.00;16.20;;;1.00;91.50;;;;;;5064875;28;20210;-82
2021/01/03 05:52:05;;;;;;;32.73;15.93;;;1.00;91.80;;;;;;5066906;28;20235;-78
2021/01/03 05:54:34;;;;;;;31.87;16.10;;;1.00;91.50;;;;;;5049699;28;20233;-79
2021/01/03 05:57:06;;;;;;;36.00;17.37;;;1.00;91.50;;;;;;5057209;28;20271;-83
2021/01/03 05:59:37;;;;;;;35.87;17.33;;;1.00;91.50;;;;;;5051248;28;20796;-82
2021/01/03 06:02:10;;;;;;;40.73;17.70;;;1.00;91.70;;;;;;5050606;28;20244;-80
2021/01/03 06:04:36;;;;;;;38.37;18.67;;;1.00;91.50;;;;;;5056260;28;20511;-82
2021/01/03 06:07:13;;;;;;;32.93;16.80;;;1.00;91.70;;;;;;5056991;28;20290;-82
2021/01/03 06:09:41;;;;;;;38.87;18.87;;;1.00;91.50;;;;;;5057135;28;20287;-79
2021/01/03 06:12:15;;;;;;;34.77;17.93;;;1.00;91.30;;;;;;5056905;28;21250;-80
2021/01/03 06:14:43;;;;;;;35.20;18.37;;;0.90;91.70;;;;;;5057251;28;20207;-82
2021/01/03 06:17:28;;;;;;;38.17;18.37;;;0.80;92.40;;;;;;5055868;28;20223;-79
2021/01/03 06:20:04;;;;;;;39.67;18.60;;;0.80;92.30;;;;;;5057529;28;20624;-81
2021/01/03 06:22:40;;;;;;;37.67;17.20;;;0.80;92.50;;;;;;5057903;28;20701;-81
2021/01/03 06:25:18;;;;;;;35.40;18.43;;;0.80;92.30;;;;;;5066523;28;20210;-78
2021/01/03 06:27:48;;;;;;;40.47;18.23;;;0.70;92.20;;;;;;5063757;28;20234;-80
2021/01/03 06:30:19;;;;;;;36.47;18.33;;;0.70;92.50;;;;;;5064429;28;20587;-79
2021/01/03 06:33:34;;;;;;;39.10;18.93;;;0.70;92.60;;;;;;5068798;28;20301;-80
2021/01/03 06:36:10;;;;;;;37.23;18.10;;;0.70;92.40;;;;;;5068206;28;20202;-80
2021/01/03 06:39:10;;;;;;;35.40;18.00;;;0.60;92.70;;;;;;5067341;28;20228;-80
2021/01/03 06:41:46;;;;;;;34.10;18.33;;;0.70;93.10;;;;;;5034501;28;20740;-79
2021/01/03 06:44:45;;;;;;;38.40;18.00;;;0.80;92.90;;;;;;5065687;28;20264;-79
2021/01/03 06:47:42;;;;;;;36.07;18.27;;;0.80;92.40;;;;;;5042823;28;20233;-79
2021/01/03 06:50:56;;;;;;;31.37;16.67;;;0.90;92.30;;;;;;5066061;28;20203;-79
2021/01/03 06:54:01;;;;;;;36.00;18.50;;;1.10;91.80;;;;;;5066369;28;20214;-79
2021/01/03 06:57:04;;;;;;;33.60;16.80;;;1.10;91.70;;;;;;5066592;28;20227;-79
2021/01/03 06:59:56;;;;;;;33.63;16.87;;;1.20;91.40;;;;;;5067121;28;20274;-79
2021/01/03 07:02:24;;;;;;;32.83;16.50;;;1.20;91.30;;;;;;5064087;28;20232;-81
2021/01/03 07:04:50;;;;;;;33.27;16.83;;;1.20;91.30;;;;;;5068180;28;20203;-80
2021/01/03 07:07:20;;;;;;;35.70;17.37;;;1.20;91.00;;;;;;5067159;28;20727;-81
2021/01/03 07:09:58;;;;;;;35.87;16.87;;;1.10;91.20;;;;;;5068039;28;20693;-79
2021/01/03 07:12:39;;;;;;;33.17;16.93;;;1.10;91.30;;;;;;5066784;28;20226;-80
2021/01/03 07:15:12;;;;;;;31.27;17.40;;;1.00;91.40;;;;;;5065219;28;20213;-79
2021/01/03 07:18:10;;;;;;;34.30;16.10;;;1.00;91.30;;;;;;5064152;28;20233;-80
2021/01/03 07:20:50;;;;;;;30.70;15.53;;;1.10;91.10;;;;;;5066806;28;20624;-81
2021/01/03 07:23:26;;;;;;;31.37;16.60;;;1.00;91.00;;;;;;5062892;28;20217;-79
2021/01/03 07:25:59;;;;;;;30.67;15.27;;;1.10;91.10;;;;;;5067243;28;20611;-80
2021/01/03 07:28:27;;;;;;;31.17;16.17;;;1.10;91.10;;;;;;5060452;28;20218;-79
2021/01/03 07:30:59;;;;;;;32.63;15.60;;;1.10;91.00;;;;;;5061756;28;20211;-79
2021/01/03 07:33:49;;;;;;;29.90;15.27;;;1.20;90.90;;;;;;5065216;28;20696;-80
2021/01/03 07:36:20;;;;;;;35.03;16.57;;;1.20;90.80;;;;;;5063653;28;20530;-79
2021/01/03 07:39:05;;;;;;;30.40;15.40;;;1.20;91.00;;;;;;5066899;28;20755;-80
2021/01/03 07:41:31;;;;;;;34.10;16.70;;;1.20;90.60;;;;;;5064733;28;20231;-81
2021/01/03 07:44:01;;;;;;;34.13;16.20;;;1.10;90.80;;;;;;5067624;28;20195;-80
2021/01/03 07:46:50;;;;;;;33.03;16.00;;;1.20;90.70;;;;;;5065879;28;20234;-83
2021/01/03 07:49:40;;;;;;;29.77;15.20;;;1.10;90.90;;;;;;5063069;28;20203;-81
2021/01/03 07:52:37;;;;;;;30.63;15.47;;;1.10;91.00;;;;;;5061803;28;20746;-82
2021/01/03 07:55:05;;;;;;;31.87;15.40;;;1.10;90.80;;;;;;5067445;28;20209;-79
2021/01/03 07:57:32;;;;;;;30.47;15.67;;;1.10;90.80;;;;;;5070226;28;20237;-79
2021/01/03 08:00:00;;;;;;;29.37;15.50;;;1.20;90.90;;;;;;5068625;28;20272;-78
2021/01/03 08:02:29;;;;;;;32.67;16.03;;;1.30;90.60;;;;;;5068217;28;20218;-79
2021/01/03 08:04:59;;;;;;;31.83;15.93;;;1.30;90.40;;;;;;5070971;28;20646;-79
2021/01/03 08:07:25;;;;;;;31.43;16.43;;;1.40;90.30;;;;;;5072461;28;20242;-81
2021/01/03 08:09:52;;;;;;;31.27;15.80;;;1.30;90.40;;;;;;5069330;28;20207;-79
2021/01/03 08:12:23;;;;;;;31.27;15.37;;;1.20;90.90;;;;;;5070955;28;20220;-79
2021/01/03 08:14:57;;;;;;;34.47;16.23;;;1.40;90.50;;;;;;5070139;28;20207;-81
2021/01/03 08:17:29;;;;;;;30.70;15.60;;;1.40;90.10;;;;;;5070621;28;20241;-82
2021/01/03 08:20:02;;;;;;;30.93;15.27;;;1.40;90.40;;;;;;5070885;28;20277;-82
2021/01/03 08:22:29;;;;;;;29.40;15.03;;;1.40;90.30;;;;;;5071996;28;20230;-84
2021/01/03 08:24:57;;;;;;;33.07;15.87;;;1.40;90.30;;;;;;5072427;28;20200;-80
2021/01/03 08:27:30;;;;;;;32.73;16.27;;;1.30;90.30;;;;;;5073104;28;20579;-79
2021/01/03 08:30:03;;;;;;;29.57;15.43;;;1.40;90.10;;;;;;5070465;28;20576;-79
2021/01/03 08:32:32;;;;;;;30.70;15.90;;;1.40;90.00;;;;;;5071606;28;20701;-79
2021/01/03 08:35:01;;;;;;;29.67;15.47;;;1.50;89.80;;;;;;5071467;28;20206;-80
2021/01/03 08:37:30;;;;;;;29.40;15.17;;;1.50;89.30;;;;;;5070839;28;20230;-80
2021/01/03 08:39:57;;;;;;;27.30;15.27;;;1.50;89.20;;;;;;5072038;28;20591;-79
2021/01/03 08:42:34;;;;;;;29.33;16.03;;;1.50;89.40;;;;;;5071771;28;20227;-79
2021/01/03 08:45:01;;;;;;;34.30;15.17;;;1.60;89.70;;;;;;5070263;28;20675;-79
2021/01/03 08:47:39;;;;;;;32.17;15.60;;;1.70;89.30;;;;;;5078278;28;20746;-79
2021/01/03 08:50:10;;;;;;;27.10;14.73;;;1.70;89.10;;;;;;5068060;28;20200;-79
2021/01/03 08:52:37;;;;;;;28.43;15.07;;;1.70;89.00;;;;;;5071236;28;20227;-80
2021/01/03 08:55:09;;;;;;;34.10;14.83;;;1.70;89.00;;;;;;5078535;28;20208;-84
2021/01/03 08:57:35;;;;;;;29.40;14.93;;;1.80;87.80;;;;;;5079079;28;20566;-83
2021/01/03 09:00:03;;;;;;;28.97;15.10;;;1.80;87.00;;;;;;5072691;28;20281;-80
2021/01/03 09:02:30;;;;;;;29.93;15.03;;;1.80;86.90;;;;;;5069507;28;20235;-80
2021/01/03 09:05:00;;;;;;;28.60;15.03;;;1.80;86.90;;;;;;5071865;28;20208;-80
2021/01/03 09:07:31;;;;;;;31.47;15.77;;;1.80;86.90;;;;;;5070996;28;20229;-81
2021/01/03 09:10:00;;;;;;;26.20;15.57;;;1.90;87.00;;;;;;5059000;28;20231;-89
2021/01/03 09:12:37;;;;;;;27.70;15.63;;;1.80;86.90;;;;;;5054131;28;20311;-79
2021/01/03 09:15:08;;;;;;;31.77;15.73;;;1.80;86.90;;;;;;5044456;28;20594;-81
2021/01/03 09:17:37;;;;;;;30.90;15.67;;;1.80;86.90;;;;;;5053480;28;20561;-80
2021/01/03 09:20:13;;;;;;;29.17;15.03;;;1.80;86.90;;;;;;5055765;28;20273;-90
2021/01/03 09:22:44;;;;;;;29.33;15.70;;;1.70;86.80;;;;;;5051119;28;20687;-87
2021/01/03 09:25:18;;;;;;;26.93;14.23;;;1.70;86.90;;;;;;5050414;28;20664;-80
2021/01/03 09:27:50;;;;;;;27.77;15.70;;;1.80;86.90;;;;;;5045284;28;20225;-82
2021/01/03 09:30:24;;;;;;;26.20;14.30;;;1.80;86.90;;;;;;5047391;28;20207;-86
2021/01/03 09:32:55;;;;;;;25.67;14.60;;;1.90;87.00;;;;;;5052352;28;20228;-82
2021/01/03 09:35:36;;;;;;;26.10;13.53;;;2.00;85.10;;;;;;5052041;28;20201;-82
2021/01/03 09:38:23;;;;;;;27.60;15.00;;;1.90;86.30;;;;;;5048296;28;20308;-85
2021/01/03 09:40:59;;;;;;;26.53;14.47;;;1.80;86.30;;;;;;5050787;28;20798;-83
2021/01/03 09:43:38;;;;;;;26.93;14.57;;;1.90;87.00;;;;;;5045163;28;20217;-80
2021/01/03 09:46:10;;;;;;;27.33;14.97;;;1.80;87.00;;;;;;5046792;28;20197;-83
2021/01/03 09:48:39;;;;;;;25.97;15.03;;;1.80;87.00;;;;;;5050470;28;20263;-86
2021/01/03 09:51:30;;;;;;;26.47;14.40;;;1.90;86.50;;;;;;5044244;28;20194;-84
2021/01/03 09:54:10;;;;;;;28.43;15.00;;;1.90;87.00;;;;;;5044570;28;20202;-82
2021/01/03 09:56:39;;;;;;;24.83;13.57;;;1.90;86.40;;;;;;5046301;28;20515;-80
2021/01/03 09:59:11;;;;;;;25.93;13.43;;;2.00;85.00;;;;;;5052821;28;20314;-83
2021/01/03 10:01:37;;;;;;;23.97;13.50;;;2.00;83.60;;;;;;5051002;28;20250;-83
2021/01/03 10:04:29;;;;;;;26.40;13.33;;;2.00;84.30;;;;;;5051081;28;20321;-82
2021/01/03 10:06:57;;;;;;;23.37;12.70;;;2.10;83.60;;;;;;5032954;28;20247;-83
2021/01/03 10:09:33;;;;;;;26.20;13.50;;;2.10;83.60;;;;;;5052727;28;20698;-83
2021/01/03 10:12:00;;;;;;;24.80;13.43;;;2.00;84.50;;;;;;5053437;28;20225;-86
2021/01/03 10:14:31;;;;;;;24.73;13.70;;;2.00;84.40;;;;;;5053208;28;20198;-82
2021/01/03 10:17:12;;;;;;;24.10;13.53;;;2.00;84.80;;;;;;5053522;28;20581;-83
2021/01/03 10:19:39;;;;;;;22.73;13.73;;;1.90;85.10;;;;;;5052812;28;20293;-81
2021/01/03 10:22:05;;;;;;;21.30;12.57;;;1.80;84.90;;;;;;5053172;28;20225;-84
2021/01/03 10:24:32;;;;;;;24.00;13.47;;;1.90;84.00;;;;;;5052640;28;20733;-81
2021/01/03 10:27:15;;;;;;;24.43;13.17;;;1.90;83.70;;;;;;5045895;28;20224;-83
2021/01/03 10:29:42;;;;;;;22.67;13.20;;;1.80;85.20;;;;;;5049419;28;20208;-84
2021/01/03 10:32:09;;;;;;;28.13;14.13;;;1.80;85.70;;;;;;5047596;28;20221;-87
2021/01/03 10:34:35;;;;;;;26.30;14.33;;;1.90;85.10;;;;;;5054036;28;20259;-84
2021/01/03 10:37:03;;;;;;;25.20;13.37;;;1.90;85.60;;;;;;5054166;28;20688;-84
2021/01/03 10:39:34;;;;;;;25.70;14.40;;;2.00;84.70;;;;;;5054055;28;20443;-86
2021/01/03 10:42:05;;;;;;;27.10;14.13;;;2.10;83.80;;;;;;5057032;28;20231;-82
2021/01/03 10:44:31;;;;;;;23.43;13.97;;;2.20;83.80;;;;;;5056354;28;20558;-82
2021/01/03 10:46:58;;;;;;;24.07;13.60;;;2.20;84.10;;;;;;5062083;28;20232;-82
2021/01/03 10:49:25;;;;;;;24.37;14.13;;;2.20;84.30;;;;;;5065291;28;20409;-78
2021/01/03 10:51:51;;;;;;;25.20;14.10;;;2.20;84.40;;;;;;5048853;28;20274;-79
2021/01/03 10:54:20;;;;;;;22.97;13.73;;;2.30;82.90;;;;;;5052939;28;20203;-79
2021/01/03 10:56:51;;;;;;;24.63;13.97;;;2.30;83.40;;;;;;5048222;28;20224;-85
2021/01/03 10:59:18;;;;;;;24.97;14.23;;;2.30;83.00;;;;;;5061012;28;20633;-80
2021/01/03 11:01:45;;;;;;;25.50;14.00;;;2.40;83.10;;;;;;5049068;28;20255;-79
2021/01/03 11:04:16;;;;;;;23.57;14.17;;;2.60;81.70;;;;;;5058862;28;20213;-81
2021/01/03 11:06:44;;;;;;;24.97;13.30;;;2.60;82.10;;;;;;5064597;28;20755;-80
2021/01/03 11:09:18;;;;;;;22.77;12.63;;;2.60;81.30;;;;;;5061935;28;20660;-84
2021/01/03 11:11:45;;;;;;;28.20;14.10;;;2.70;81.70;;;;;;5061843;28;20233;-82
2021/01/03 11:14:12;;;;;;;21.17;12.43;;;2.80;81.20;;;;;;5050577;28;20209;-80
2021/01/03 11:16:41;;;;;;;21.07;11.50;;;2.70;80.30;;;;;;5046899;28;20221;-82
2021/01/03 11:19:11;;;;;;;21.67;12.10;;;2.80;80.10;;;;;;5064612;28;20706;-82
2021/01/03 11:21:37;;;;;;;21.53;12.90;;;2.90;78.10;;;;;;5058075;28;20221;-84
2021/01/03 11:24:05;;;;;;;21.23;12.97;;;2.90;78.70;;;;;;5067481;28;20197;-87
2021/01/03 11:26:34;;;;;;;20.07;12.00;;;2.90;78.00;;;;;;5057407;28;20236;-81
2021/01/03 11:29:01;;;;;;;18.40;11.43;;;3.10;78.20;;;;;;5068409;28;20202;-82
2021/01/03 11:31:34;;;;;;;19.60;11.00;;;3.20;77.00;;;;;;5070916;28;20227;-80
2021/01/03 11:34:03;;;;;;;18.07;9.47;;;2.90;76.80;;;;;;5061030;28;20574;-83
2021/01/03 11:36:31;;;;;;;18.13;10.50;;;2.70;77.40;;;;;;5061434;28;20225;-79
2021/01/03 11:38:59;;;;;;;17.67;10.33;;;2.70;78.40;;;;;;5064478;28;20208;-80
2021/01/03 11:41:25;;;;;;;19.33;11.13;;;2.50;79.10;;;;;;5064862;28;20535;-81
2021/01/03 11:43:52;;;;;;;22.37;12.60;;;2.60;79.30;;;;;;5059170;28;20755;-88
2021/01/03 11:46:18;;;;;;;15.60;9.80;;;2.50;79.40;;;;;;5054234;28;20560;-80
2021/01/03 11:48:45;;;;;;;13.53;8.20;;;2.60;78.30;;;;;;5064168;28;20218;-81
2021/01/03 11:51:12;;;;;;;15.57;9.57;;;2.70;77.00;;;;;;5061308;28;20224;-82
2021/01/03 11:53:38;;;;;;;15.53;9.50;;;2.70;76.40;;;;;;5067904;28;20630;-83
2021/01/03 11:56:05;;;;;;;16.17;9.20;;;2.80;75.60;;;;;;5078194;28;20205;-84
2021/01/03 11:58:31;;;;;;;15.83;9.30;;;2.70;75.20;;;;;;5064396;28;20205;-81
2021/01/03 12:00:58;;;;;;;17.07;9.70;;;2.80;76.00;;;;;;5063653;28;20233;-85
2021/01/03 12:03:24;;;;;;;13.93;9.20;;;2.90;76.30;;;;;;5050516;28;21234;-90
2021/01/03 12:05:51;;;;;;;15.63;9.40;;;3.00;76.20;;;;;;5055631;28;20201;-84
2021/01/03 12:08:18;;;;;;;16.60;10.27;;;2.90;76.20;;;;;;5067496;28;20509;-85
2021/01/03 12:10:44;;;;;;;17.03;10.00;;;2.90;76.20;;;;;;5065806;28;20648;-83
2021/01/03 12:13:10;;;;;;;16.57;9.23;;;2.90;75.60;;;;;;5071408;28;20287;-83
2021/01/03 12:15:37;;;;;;;15.47;9.17;;;2.90;75.90;;;;;;5067845;28;20197;-83
2021/01/03 12:18:03;;;;;;;12.50;8.13;;;2.90;76.80;;;;;;5069615;28;20220;-82
2021/01/03 12:20:30;;;;;;;13.10;8.50;;;2.80;75.50;;;;;;5067569;28;20637;-83
2021/01/03 12:22:57;;;;;;;14.10;9.07;;;2.90;74.10;;;;;;5069745;28;20251;-83
2021/01/03 12:25:23;;;;;;;15.90;9.90;;;2.90;74.80;;;;;;5070955;28;20205;-84
2021/01/03 12:27:50;;;;;;;18.77;10.43;;;2.90;76.10;;;;;;5067264;28;20223;-81
2021/01/03 12:30:17;;;;;;;18.07;11.00;;;2.80;77.10;;;;;;5068966;28;20273;-84
2021/01/03 12:32:43;;;;;;;18.07;10.70;;;2.80;76.40;;;;;;5061405;28;20229;-86
2021/01/03 12:35:10;;;;;;;18.07;10.53;;;2.90;75.40;;;;;;5069057;28;20201;-81
2021/01/03 12:37:38;;;;;;;15.47;9.87;;;2.90;75.80;;;;;;5066353;28;20227;-80
2021/01/03 12:40:07;;;;;;;15.73;9.67;;;2.70;75.40;;;;;;5068450;28;20225;-83
2021/01/03 12:42:35;;;;;;;16.47;10.33;;;2.70;75.70;;;;;;5068074;28;20870;-82
2021/01/03 12:45:02;;;;;;;17.17;10.67;;;2.70;76.10;;;;;;5059197;28;20229;-82
2021/01/03 12:47:30;;;;;;;14.23;9.03;;;2.70;76.70;;;;;;5073205;28;20233;-82
2021/01/03 12:49:57;;;;;;;15.97;9.87;;;2.70;77.20;;;;;;5069856;28;20220;-82
2021/01/03 12:52:23;;;;;;;16.97;9.73;;;2.60;76.70;;;;;;5069443;28;20233;-80
2021/01/03 12:54:49;;;;;;;15.80;9.50;;;2.60;76.70;;;;;;5074551;28;20660;-85
2021/01/03 12:57:17;;;;;;;17.77;9.63;;;2.50;76.20;;;;;;5071831;28;20225;-86